createdAt,value
2023-05-17T00:02:23.114Z,12.75
2023-05-17T00:04:51.302Z,12.75
2023-05-17T00:07:19.207Z,12.73
2023-05-17T00:09:47.080Z,12.73
2023-05-17T00:12:15.089Z,12.73
2023-05-17T00:14:42.952Z,12.72
2023-05-17T00:17:12.220Z,12.71
2023-05-17T00:19:40.168Z,12.70
2023-05-17T00:22:08.093Z,12.62
2023-05-17T00:24:35.967Z,12.62
2023-05-17T00:27:03.962Z,12.68
2023-05-17T00:29:31.873Z,12.68
2023-05-17T00:31:59.748Z,12.67
2023-05-17T00:34:29.715Z,12.63
2023-05-17T00:36:57.961Z,12.67
2023-05-17T00:39:25.880Z,12.66
2023-05-17T00:41:53.918Z,12.54
2023-05-17T00:44:21.839Z,12.62
2023-05-17T00:46:50.578Z,12.66
2023-05-17T00:49:19.519Z,12.66
2023-05-17T00:51:49.270Z,12.57
2023-05-17T00:54:17.272Z,12.63
2023-05-17T00:56:45.697Z,12.61
2023-05-17T00:59:15.085Z,12.63
2023-05-17T01:01:44.043Z,12.58
2023-05-17T01:04:14.662Z,12.64
2023-05-17T01:06:42.889Z,12.65
2023-05-17T01:09:13.121Z,12.59
2023-05-17T01:11:49.759Z,12.59
2023-05-17T01:14:30.918Z,12.59
2023-05-17T01:17:05.110Z,12.54
2023-05-17T01:19:54.551Z,12.46
2023-05-17T01:22:33.072Z,12.57
2023-05-17T01:25:37.348Z,12.55
2023-05-17T01:28:09.279Z,12.56
2023-05-17T01:30:39.092Z,12.57
2023-05-17T01:33:08.431Z,12.55
2023-05-17T01:35:36.345Z,12.52
2023-05-17T01:38:04.273Z,12.52
2023-05-17T01:40:37.019Z,12.52
2023-05-17T01:43:17.090Z,12.51
2023-05-17T01:45:50.853Z,12.49
2023-05-17T01:48:24.877Z,12.46
2023-05-17T01:50:55.387Z,12.45
2023-05-17T01:53:31.299Z,12.21
2023-05-17T01:56:04.969Z,12.42
2023-05-17T01:58:41.272Z,12.35
2023-05-17T02:01:11.172Z,12.37
2023-05-17T02:03:39.056Z,12.37
2023-05-17T02:06:07.503Z,12.38
2023-05-17T02:08:35.469Z,12.38
2023-05-17T02:11:03.657Z,12.31
2023-05-17T02:13:31.517Z,12.33
2023-05-17T02:16:02.883Z,12.31
2023-05-17T02:18:31.004Z,12.27
2023-05-17T02:20:58.977Z,12.25
2023-05-17T02:23:27.078Z,12.29
2023-05-17T02:25:55.011Z,12.31
2023-05-17T02:28:22.863Z,12.26
2023-05-17T02:30:50.812Z,12.33
2023-05-17T02:33:20.090Z,12.34
2023-05-17T02:35:50.105Z,12.29
2023-05-17T02:38:18.150Z,12.18
2023-05-17T02:40:46.008Z,12.10
2023-05-17T02:43:13.866Z,12.13
2023-05-17T02:45:41.803Z,12.11
2023-05-17T02:48:09.693Z,12.09
2023-05-17T02:50:39.082Z,11.97
2023-05-17T02:53:07.102Z,12.10
2023-05-17T02:55:35.083Z,12.12
2023-05-17T02:58:04.515Z,12.08
2023-05-17T03:00:32.490Z,11.95
2023-05-17T03:03:00.456Z,12.09
2023-05-17T03:05:28.603Z,12.11
2023-05-17T03:07:59.660Z,12.13
2023-05-17T03:10:27.539Z,12.14
2023-05-17T03:12:55.427Z,12.17
2023-05-17T03:15:23.772Z,12.16
2023-05-17T03:17:51.688Z,12.15
2023-05-17T03:20:19.971Z,12.10
2023-05-17T03:22:47.967Z,12.09
2023-05-17T03:25:17.291Z,12.04
2023-05-17T03:27:45.285Z,11.98
2023-05-17T03:30:13.809Z,12.08
2023-05-17T03:32:41.853Z,12.08
2023-05-17T03:35:10.752Z,12.11
2023-05-17T03:37:38.825Z,12.11
2023-05-17T03:40:07.815Z,12.10
2023-05-17T03:42:37.089Z,12.09
2023-05-17T03:45:05.612Z,12.05
2023-05-17T03:47:33.503Z,12.07
2023-05-17T03:50:01.422Z,12.12
2023-05-17T03:52:29.537Z,12.03
2023-05-17T03:54:57.441Z,12.07
2023-05-17T03:57:25.416Z,12.11
2023-05-17T03:59:54.834Z,12.11
2023-05-17T04:02:23.848Z,12.09
2023-05-17T04:04:53.088Z,12.12
2023-05-17T04:07:21.210Z,12.17
2023-05-17T04:09:49.195Z,12.25
2023-05-17T04:12:17.123Z,12.34
2023-05-17T04:14:45.008Z,12.34
2023-05-17T04:17:16.318Z,12.27
2023-05-17T04:19:44.862Z,11.89
2023-05-17T04:22:12.742Z,12.21
2023-05-17T04:24:40.691Z,12.20
2023-05-17T04:27:08.798Z,12.17
2023-05-17T04:29:36.673Z,12.17
2023-05-17T04:32:04.680Z,12.15
2023-05-17T04:34:35.779Z,12.18
2023-05-17T04:37:03.864Z,12.12
2023-05-17T04:39:31.733Z,12.17
2023-05-17T04:41:59.770Z,12.29
2023-05-17T04:44:28.346Z,12.39
2023-05-17T04:46:56.224Z,12.43
2023-05-17T04:49:25.292Z,12.50
2023-05-17T04:51:54.567Z,12.52
2023-05-17T04:54:22.456Z,12.47
2023-05-17T04:56:50.505Z,12.54
2023-05-17T04:59:18.476Z,12.53
2023-05-17T05:01:46.397Z,12.44
2023-05-17T05:04:14.483Z,12.29
2023-05-17T05:06:42.446Z,12.31
2023-05-17T05:09:11.678Z,12.05
2023-05-17T05:11:39.683Z,11.91
2023-05-17T05:14:07.577Z,11.71
2023-05-17T05:16:36.505Z,11.70
2023-05-17T05:19:04.672Z,11.60
2023-05-17T05:21:32.718Z,11.50
2023-05-17T05:24:00.582Z,11.54
2023-05-17T05:26:30.609Z,11.48
2023-05-17T05:28:58.557Z,11.43
2023-05-17T05:31:26.551Z,11.33
2023-05-17T05:33:54.511Z,11.31
2023-05-17T05:36:22.537Z,11.27
2023-05-17T05:38:53.831Z,11.27
2023-05-17T05:41:21.859Z,11.23
2023-05-17T05:43:51.221Z,11.30
2023-05-17T05:46:19.105Z,11.28
2023-05-17T05:48:47.201Z,11.25
2023-05-17T05:51:15.138Z,11.21
2023-05-17T05:53:43.437Z,11.21
2023-05-17T05:56:11.484Z,11.21
2023-05-17T05:58:39.356Z,11.22
2023-05-17T06:01:08.623Z,11.26
2023-05-17T06:03:36.656Z,11.19
2023-05-17T06:06:04.948Z,11.20
2023-05-17T06:08:33.144Z,10.38
2023-05-17T06:11:01.141Z,11.01
2023-05-17T06:13:30.229Z,10.97
2023-05-17T06:15:59.642Z,11.01
2023-05-17T06:18:29.277Z,11.04
2023-05-17T06:20:57.472Z,10.96
2023-05-17T06:23:25.780Z,11.03
2023-05-17T06:25:53.770Z,11.16
2023-05-17T06:28:21.774Z,11.29
2023-05-17T06:30:49.669Z,11.30
2023-05-17T06:33:17.688Z,11.37
2023-05-17T06:35:56.049Z,11.53
2023-05-17T06:38:25.978Z,11.27
2023-05-17T06:40:55.012Z,11.68
2023-05-17T06:43:24.491Z,11.59
2023-05-17T06:45:52.492Z,11.56
2023-05-17T06:48:20.571Z,11.57
2023-05-17T06:50:50.032Z,11.58
2023-05-17T06:53:17.994Z,11.63
2023-05-17T06:55:46.054Z,11.73
2023-05-17T06:58:14.376Z,11.70
2023-05-17T07:00:42.280Z,11.93
2023-05-17T07:03:10.256Z,11.88
2023-05-17T07:05:38.350Z,11.57
2023-05-17T07:08:07.691Z,12.52
2023-05-17T07:10:35.593Z,12.50
2023-05-17T07:13:03.616Z,12.50
2023-05-17T07:15:31.698Z,12.27
2023-05-17T07:18:00.752Z,12.04
2023-05-17T07:20:28.940Z,12.13
2023-05-17T07:22:57.199Z,12.14
2023-05-17T07:25:26.543Z,12.33
2023-05-17T07:27:54.575Z,12.61
2023-05-17T07:30:22.559Z,12.68
2023-05-17T07:32:50.547Z,12.56
2023-05-17T07:35:21.024Z,12.50
2023-05-17T07:37:49.785Z,12.75
2023-05-17T07:40:18.033Z,12.49
2023-05-17T07:42:47.391Z,12.15
2023-05-17T07:45:17.594Z,11.83
2023-05-17T07:47:45.662Z,11.74
2023-05-17T07:50:13.808Z,11.31
2023-05-17T07:52:41.807Z,11.12
2023-05-17T07:55:10.896Z,10.88
2023-05-17T07:57:38.857Z,10.88
2023-05-17T08:00:12.818Z,10.64
2023-05-17T08:02:41.242Z,10.48
2023-05-17T08:05:09.903Z,10.34
2023-05-17T08:07:37.796Z,10.24
2023-05-17T08:10:06.365Z,10.31
2023-05-17T08:12:34.284Z,10.28
2023-05-17T08:15:02.235Z,10.21
2023-05-17T08:17:31.668Z,10.21
2023-05-17T08:19:59.603Z,9.97
2023-05-17T08:22:27.552Z,9.05
2023-05-17T08:24:55.560Z,9.72
2023-05-17T08:27:24.506Z,9.76
2023-05-17T08:29:54.934Z,9.70
2023-05-17T08:32:23.705Z,9.59
2023-05-17T08:34:53.114Z,9.44
2023-05-17T08:37:21.016Z,9.42
2023-05-17T08:39:49.793Z,9.49
2023-05-17T08:42:25.329Z,9.58
2023-05-17T08:44:54.906Z,9.63
2023-05-17T08:47:29.855Z,9.63
2023-05-17T08:50:00.597Z,9.40
2023-05-17T08:52:32.299Z,9.44
2023-05-17T08:55:04.784Z,8.52
2023-05-17T08:57:34.276Z,9.50
2023-05-17T09:00:03.100Z,9.21
2023-05-17T09:02:33.031Z,9.16
2023-05-17T09:05:02.952Z,9.01
2023-05-17T09:07:31.129Z,8.88
2023-05-17T09:09:59.148Z,8.85
2023-05-17T09:12:27.085Z,8.80
2023-05-17T09:14:55.078Z,8.69
2023-05-17T09:17:23.265Z,8.62
2023-05-17T09:19:52.171Z,8.59
2023-05-17T09:22:22.326Z,8.60
2023-05-17T09:24:51.419Z,8.51
2023-05-17T09:27:19.849Z,8.56
2023-05-17T09:29:48.461Z,8.56
2023-05-17T09:32:18.460Z,8.51
2023-05-17T09:34:48.417Z,8.44
2023-05-17T09:37:17.618Z,8.35
2023-05-17T09:39:47.984Z,8.30
2023-05-17T09:42:16.940Z,8.24
2023-05-17T09:44:49.998Z,8.09
2023-05-17T09:47:28.571Z,7.56
2023-05-17T09:49:58.136Z,7.71
2023-05-17T09:52:27.026Z,7.61
2023-05-17T09:54:58.621Z,7.64
2023-05-17T09:57:28.441Z,7.59
2023-05-17T09:59:58.000Z,7.53
2023-05-17T10:02:29.715Z,7.34
2023-05-17T10:04:59.435Z,7.31
2023-05-17T10:07:28.235Z,6.76
2023-05-17T10:09:58.547Z,7.21
2023-05-17T10:12:30.582Z,7.06
2023-05-17T10:15:00.065Z,7.02
2023-05-17T10:17:30.026Z,7.10
2023-05-17T10:19:59.434Z,7.05
2023-05-17T10:22:29.257Z,7.15
2023-05-17T10:24:59.609Z,7.25
2023-05-17T10:27:29.129Z,7.14
2023-05-17T10:29:58.750Z,7.53
2023-05-17T10:32:30.045Z,7.56
2023-05-17T10:35:10.299Z,7.60
2023-05-17T10:37:41.377Z,7.64
2023-05-17T10:40:13.970Z,7.68
2023-05-17T10:42:45.727Z,7.77
2023-05-17T10:45:14.903Z,7.82
2023-05-17T10:47:46.321Z,7.86
2023-05-17T10:50:15.328Z,7.91
2023-05-17T10:52:48.608Z,7.80
2023-05-17T10:55:22.059Z,8.12
2023-05-17T10:58:18.143Z,8.08
2023-05-17T11:00:48.263Z,8.47
2023-05-17T11:03:19.761Z,8.61
2023-05-17T11:06:23.973Z,8.56
2023-05-17T11:09:09.558Z,8.58
2023-05-17T11:11:39.014Z,8.33
2023-05-17T11:14:08.687Z,8.33
2023-05-17T11:16:39.127Z,7.96
2023-05-17T11:19:11.823Z,8.28
2023-05-17T11:21:50.207Z,7.96
2023-05-17T11:24:26.834Z,7.71
2023-05-17T11:26:56.779Z,8.31
2023-05-17T11:29:30.489Z,8.21
2023-05-17T11:31:58.589Z,8.18
2023-05-17T11:34:28.358Z,8.17
2023-05-17T11:36:57.539Z,8.17
2023-05-17T11:39:26.993Z,8.08
2023-05-17T11:41:57.753Z,7.90
2023-05-17T11:44:27.042Z,8.13
2023-05-17T11:47:02.964Z,8.03
2023-05-17T11:49:36.225Z,7.62
2023-05-17T11:52:04.900Z,8.20
2023-05-17T11:54:33.288Z,8.13
2023-05-17T11:57:04.091Z,8.33
2023-05-17T11:59:38.606Z,8.34
2023-05-17T12:02:08.055Z,8.32
2023-05-17T12:04:38.555Z,8.11
2023-05-17T12:07:09.309Z,8.23
2023-05-17T12:09:37.879Z,8.20
2023-05-17T12:12:08.772Z,8.18
2023-05-17T12:14:36.794Z,8.11
2023-05-17T12:17:07.246Z,7.94
2023-05-17T12:19:35.408Z,7.79
2023-05-17T12:22:12.949Z,7.57
2023-05-17T12:24:42.817Z,7.55
2023-05-17T12:27:12.607Z,7.55
2023-05-17T12:29:40.775Z,7.43
2023-05-17T12:32:10.195Z,7.40
2023-05-17T12:34:38.532Z,7.41
2023-05-17T12:37:10.479Z,6.95
2023-05-17T12:39:39.261Z,7.25
2023-05-17T12:42:07.967Z,7.24
2023-05-17T12:44:37.471Z,7.27
2023-05-17T12:47:05.665Z,7.34
2023-05-17T12:49:39.326Z,7.30
2023-05-17T12:52:07.812Z,7.20
2023-05-17T12:54:35.688Z,7.10
2023-05-17T12:57:12.730Z,6.68
2023-05-17T12:59:49.872Z,6.81
2023-05-17T13:02:20.188Z,6.91
2023-05-17T13:04:48.531Z,6.99
2023-05-17T13:07:23.821Z,7.04
2023-05-17T13:09:51.936Z,6.52
2023-05-17T13:12:22.229Z,6.92
2023-05-17T13:14:53.317Z,7.00
2023-05-17T13:17:26.139Z,6.92
2023-05-17T13:19:54.477Z,6.97
2023-05-17T13:22:22.950Z,6.83
2023-05-17T13:24:51.335Z,7.06
2023-05-17T13:27:19.345Z,7.06
2023-05-17T13:29:47.382Z,6.91
2023-05-17T13:32:16.626Z,6.91
2023-05-17T13:34:44.698Z,6.57
2023-05-17T13:37:13.042Z,6.73
2023-05-17T13:39:41.666Z,6.75
2023-05-17T13:42:10.647Z,6.65
2023-05-17T13:44:39.142Z,5.94
2023-05-17T13:47:07.585Z,6.61
2023-05-17T13:49:37.373Z,6.56
2023-05-17T13:52:08.718Z,6.53
2023-05-17T13:54:37.063Z,6.47
2023-05-17T13:57:07.599Z,5.92
2023-05-17T13:59:35.669Z,6.53
2023-05-17T14:02:04.641Z,6.59
2023-05-17T14:04:32.661Z,6.43
2023-05-17T14:07:02.027Z,6.21
2023-05-17T14:09:32.968Z,6.46
2023-05-17T14:12:01.380Z,6.41
2023-05-17T14:14:29.631Z,6.30
2023-05-17T14:16:57.905Z,6.42
2023-05-17T14:19:25.991Z,6.44
2023-05-17T14:21:53.981Z,6.51
2023-05-17T14:24:23.424Z,6.60
2023-05-17T14:26:51.413Z,6.63
2023-05-17T14:29:19.278Z,6.60
2023-05-17T14:31:47.599Z,6.68
2023-05-17T14:34:15.651Z,6.77
2023-05-17T14:36:43.678Z,6.74
2023-05-17T14:39:11.628Z,6.87
2023-05-17T14:41:41.628Z,6.89
2023-05-17T14:44:10.717Z,6.95
2023-05-17T14:46:38.709Z,6.63
2023-05-17T14:49:07.107Z,6.31
2023-05-17T14:51:35.092Z,7.04
2023-05-17T14:54:03.550Z,7.10
2023-05-17T14:56:32.292Z,7.07
2023-05-17T14:59:01.503Z,7.09
2023-05-17T15:01:29.566Z,7.10
2023-05-17T15:03:57.593Z,7.12
2023-05-17T15:06:26.656Z,7.11
2023-05-17T15:08:55.129Z,7.08
2023-05-17T15:11:23.730Z,7.12
2023-05-17T15:13:51.617Z,7.11
2023-05-17T15:16:21.078Z,7.29
2023-05-17T15:18:49.234Z,7.32
2023-05-17T15:21:17.728Z,7.25
2023-05-17T15:23:46.094Z,7.20
2023-05-17T15:26:14.033Z,7.24
2023-05-17T15:28:41.906Z,7.27
2023-05-17T15:31:10.830Z,7.27
2023-05-17T15:33:42.571Z,7.34
2023-05-17T15:36:12.482Z,7.46
2023-05-17T15:38:41.331Z,7.57
2023-05-17T15:41:13.111Z,7.59
2023-05-17T15:43:41.532Z,7.71
2023-05-17T15:46:09.915Z,7.43
2023-05-17T15:48:39.412Z,7.91
2023-05-17T15:51:07.670Z,8.14
2023-05-17T15:53:35.565Z,8.14
2023-05-17T15:56:03.522Z,8.28
2023-05-17T15:58:33.367Z,8.44
2023-05-17T16:01:04.968Z,8.51
2023-05-17T16:03:33.399Z,8.62
2023-05-17T16:06:04.428Z,8.52
2023-05-17T16:08:32.609Z,8.46
2023-05-17T16:11:02.361Z,8.42
2023-05-17T16:13:30.717Z,8.72
2023-05-17T16:15:59.718Z,8.93
2023-05-17T16:18:27.747Z,8.89
2023-05-17T16:20:59.400Z,8.70
2023-05-17T16:23:28.946Z,9.12
2023-05-17T16:25:57.169Z,8.95
2023-05-17T16:28:25.244Z,9.00
2023-05-17T16:30:53.350Z,9.01
2023-05-17T16:33:21.459Z,8.98
2023-05-17T16:35:49.903Z,9.16
2023-05-17T16:38:17.910Z,9.53
2023-05-17T16:40:47.433Z,10.53
2023-05-17T16:43:16.231Z,11.35
2023-05-17T16:45:44.987Z,11.80
2023-05-17T16:48:14.474Z,10.90
2023-05-17T16:50:42.822Z,10.32
2023-05-17T16:53:12.389Z,9.75
2023-05-17T16:55:40.281Z,9.32
2023-05-17T16:58:09.961Z,9.23
2023-05-17T17:00:38.058Z,9.04
2023-05-17T17:03:09.194Z,8.84
2023-05-17T17:05:38.409Z,8.75
2023-05-17T17:08:06.333Z,8.63
2023-05-17T17:10:35.976Z,8.43
2023-05-17T17:13:04.055Z,8.38
2023-05-17T17:15:33.316Z,8.28
2023-05-17T17:18:01.266Z,8.06
2023-05-17T17:20:31.655Z,8.10
2023-05-17T17:22:59.645Z,8.06
2023-05-17T17:25:28.117Z,8.01
2023-05-17T17:27:56.164Z,7.95
2023-05-17T17:30:24.224Z,7.92
2023-05-17T17:32:53.708Z,7.93
2023-05-17T17:35:22.220Z,7.80
2023-05-17T17:37:50.373Z,7.89
2023-05-17T17:40:18.405Z,7.98
2023-05-17T17:42:47.318Z,8.03
2023-05-17T17:45:15.293Z,8.18
2023-05-17T17:47:43.273Z,8.19
2023-05-17T17:50:12.759Z,8.20
2023-05-17T17:52:40.736Z,8.23
2023-05-17T17:55:11.062Z,8.16
2023-05-17T17:57:39.020Z,8.12
2023-05-17T18:00:11.490Z,8.10
2023-05-17T18:02:40.046Z,8.08
2023-05-17T18:05:08.639Z,8.13
2023-05-17T18:07:38.567Z,8.00
2023-05-17T18:10:07.433Z,8.20
2023-05-17T18:12:35.521Z,8.20
2023-05-17T18:15:03.669Z,8.13
2023-05-17T18:17:31.643Z,8.18
2023-05-17T18:19:59.578Z,8.14
2023-05-17T18:22:27.556Z,7.84
2023-05-17T18:24:56.979Z,8.06
2023-05-17T18:27:25.016Z,8.06
2023-05-17T18:29:53.117Z,8.06
2023-05-17T18:32:21.137Z,8.07
2023-05-17T18:34:49.004Z,8.06
2023-05-17T18:37:16.869Z,8.06
2023-05-17T18:39:44.790Z,8.06
2023-05-17T18:42:14.104Z,8.07
2023-05-17T18:44:42.039Z,8.06
2023-05-17T18:47:10.650Z,8.05
2023-05-17T18:49:41.858Z,8.03
2023-05-17T18:52:09.726Z,8.02
2023-05-17T18:54:38.529Z,7.96
2023-05-17T18:57:06.893Z,7.11
2023-05-17T18:59:36.184Z,7.97
2023-05-17T19:02:05.079Z,7.96
2023-05-17T19:04:33.165Z,7.94
2023-05-17T19:07:01.192Z,7.91
2023-05-17T19:09:29.187Z,7.83
2023-05-17T19:11:57.968Z,7.90
2023-05-17T19:14:25.855Z,7.80
2023-05-17T19:16:56.973Z,7.77
2023-05-17T19:19:25.976Z,7.83
2023-05-17T19:21:54.519Z,7.82
2023-05-17T19:24:22.400Z,7.70
2023-05-17T19:26:50.265Z,7.78
2023-05-17T19:29:18.319Z,7.80
2023-05-17T19:31:46.276Z,7.81
2023-05-17T19:34:15.863Z,7.81
2023-05-17T19:36:43.924Z,7.80
2023-05-17T19:39:11.806Z,7.80
2023-05-17T19:41:39.758Z,7.68
2023-05-17T19:44:07.742Z,7.79
2023-05-17T19:46:35.745Z,7.69
2023-05-17T19:49:04.618Z,7.73
2023-05-17T19:51:34.042Z,7.68
2023-05-17T19:54:02.014Z,7.60
2023-05-17T19:56:29.904Z,7.61
2023-05-17T19:58:58.057Z,7.53
2023-05-17T20:01:26.009Z,7.56
2023-05-17T20:03:53.968Z,7.56
2023-05-17T20:06:22.189Z,7.53
2023-05-17T20:08:51.447Z,7.50
2023-05-17T20:11:19.337Z,7.41
2023-05-17T20:13:47.361Z,7.47
2023-05-17T20:16:15.293Z,7.39
2023-05-17T20:18:44.406Z,7.38
2023-05-17T20:21:15.311Z,7.34
2023-05-17T20:23:43.529Z,7.30
2023-05-17T20:26:16.980Z,7.26
2023-05-17T20:28:44.992Z,7.24
2023-05-17T20:31:13.341Z,7.19
2023-05-17T20:33:41.531Z,7.15
2023-05-17T20:36:11.150Z,7.20
2023-05-17T20:38:39.148Z,7.18
2023-05-17T20:41:07.564Z,7.14
2023-05-17T20:43:37.445Z,7.10
2023-05-17T20:46:07.337Z,7.07
2023-05-17T20:48:35.602Z,7.00
2023-05-17T20:51:03.635Z,6.94
2023-05-17T20:53:32.321Z,6.21
2023-05-17T20:56:00.313Z,6.96
2023-05-17T20:58:29.101Z,6.94
2023-05-17T21:01:00.262Z,6.93
2023-05-17T21:03:33.268Z,6.70
2023-05-17T21:06:02.250Z,6.90
2023-05-17T21:08:30.236Z,6.92
2023-05-17T21:10:58.153Z,6.91
2023-05-17T21:13:26.453Z,6.94
2023-05-17T21:15:55.064Z,6.95
2023-05-17T21:18:24.501Z,6.94
2023-05-17T21:20:53.317Z,6.86
2023-05-17T21:23:23.511Z,6.92
2023-05-17T21:25:51.493Z,6.86
2023-05-17T21:28:19.360Z,6.75
2023-05-17T21:30:47.292Z,6.80
2023-05-17T21:33:15.271Z,6.76
2023-05-17T21:35:44.567Z,6.75
2023-05-17T21:38:12.621Z,6.74
2023-05-17T21:40:42.369Z,6.74
2023-05-17T21:43:11.351Z,6.74
2023-05-17T21:45:39.865Z,6.74
2023-05-17T21:48:08.159Z,6.69
2023-05-17T21:50:36.215Z,6.70
2023-05-17T21:53:05.931Z,6.72
2023-05-17T21:55:40.939Z,6.69
2023-05-17T21:58:16.323Z,6.80
2023-05-17T22:00:44.465Z,6.84
2023-05-17T22:03:12.509Z,6.86
2023-05-17T22:05:40.511Z,6.87
2023-05-17T22:08:09.931Z,6.86
2023-05-17T22:10:40.545Z,6.86
2023-05-17T22:13:12.311Z,6.81
2023-05-17T22:15:41.692Z,6.08
2023-05-17T22:18:12.371Z,6.64
2023-05-17T22:20:40.726Z,6.82
2023-05-17T22:23:10.140Z,6.82
2023-05-17T22:25:38.131Z,6.84
2023-05-17T22:28:06.081Z,6.82
2023-05-17T22:30:34.283Z,6.81
2023-05-17T22:33:03.141Z,6.80
2023-05-17T22:35:31.131Z,6.77
2023-05-17T22:37:59.136Z,6.77
2023-05-17T22:40:28.739Z,6.76
2023-05-17T22:42:58.278Z,6.25
2023-05-17T22:45:32.911Z,6.68
2023-05-17T22:48:05.780Z,6.64
2023-05-17T22:50:33.984Z,6.55
2023-05-17T22:53:02.135Z,6.58
2023-05-17T22:55:31.527Z,6.53
2023-05-17T22:57:59.726Z,6.58
2023-05-17T23:00:27.648Z,6.58
2023-05-17T23:02:55.714Z,6.50
2023-05-17T23:05:23.913Z,6.58
2023-05-17T23:07:51.775Z,6.57
2023-05-17T23:10:20.109Z,6.56
2023-05-17T23:12:52.148Z,6.57
2023-05-17T23:15:20.730Z,6.58
2023-05-17T23:17:48.619Z,6.56
2023-05-17T23:20:16.616Z,6.52
2023-05-17T23:22:44.693Z,6.13
2023-05-17T23:25:12.565Z,6.48
2023-05-17T23:27:40.591Z,6.47
2023-05-17T23:30:11.206Z,6.46
2023-05-17T23:32:39.086Z,6.48
2023-05-17T23:35:09.006Z,6.52
2023-05-17T23:37:37.881Z,6.54
2023-05-17T23:40:06.879Z,6.49
2023-05-17T23:42:34.974Z,6.43
2023-05-17T23:45:03.076Z,6.49
2023-05-17T23:47:33.653Z,6.47
2023-05-17T23:50:03.169Z,6.45
2023-05-17T23:52:32.813Z,6.44
2023-05-17T23:55:01.661Z,6.43
2023-05-17T23:57:29.741Z,6.38
2023-05-17T23:59:57.647Z,6.44
